• Join FlightAware (Why Join?)
  • Login
  • US Flag 
07:22PM EDT


 

Airport Tracker/Info


-or-


 

Live Flight TrackerFlight Track Log ✈ RPA3143 ✈ 27-May-2013 ✈ KDCA - KMCO

Flight Track Log - Related Links

Times and Time Zones

All times are in EDT time to prevent confusion due to time zone crossing. See the RPA3143 flight status page for this flight to view local times or setup timezone preferences in your user account.

Time Position Orientation Groundspeed Altitude Reporting Facility
EDT Latitude Longitude Course Direction KTS MPH feet Rate Location/Type
08:06AM 38.8833 -77.0500 311° West 162 186 1,200  Level Potomac TRACON
08:06AM 38.9167 -77.1000 311° West 222 255 2,700 2,100 Climbing Potomac TRACON
08:07AM 38.9667 -77.1500 322° Northwest 256 295 5,300 2,520 Climbing Potomac TRACON
08:08AM 38.9833 -77.2333 284° West 272 313 7,800 2,400 Climbing Potomac TRACON
08:09AM 38.9000 -77.2833 205° Southwest 291 335 10,200 2,100 Climbing Potomac TRACON
08:10AM 38.8333 -77.3167 201° Southwest 323 372 12,000 1,800 Climbing Potomac TRACON
08:13AM 38.6514 -77.4258 205° Southwest 322 371 16,200 1,860 Climbing Washington Center
08:14AM 38.5631 -77.4769 204° Southwest 335 386 18,000 1,560 Climbing Washington Center
08:15AM 38.4706 -77.5275 203° Southwest 347 399 19,300 1,320 Climbing Washington Center
08:16AM 38.3817 -77.5914 209° Southwest 360 414 20,800 1,380 Climbing Washington Center
08:17AM 38.3197 -77.6903 231° Southwest 360 414 22,100 1,320 Climbing Washington Center
08:18AM 38.2531 -77.7917 230° Southwest 369 425 23,500 1,260 Climbing Washington Center
08:19AM 38.1844 -77.8925 229° Southwest 381 438 24,700 1,140 Climbing Washington Center
08:20AM 38.1242 -78.0017 235° Southwest 386 444 25,800 1,080 Climbing Washington Center
08:21AM 38.0717 -78.1211 241° Southwest 386 444 26,900 1,200 Climbing Washington Center
08:22AM 38.0083 -78.2456 237° Southwest 391 450 28,300 1,260 Climbing Washington Center
08:23AM 37.9314 -78.3325 222° Southwest 398 458 29,500 960 Climbing Washington Center
08:24AM 37.8497 -78.4294 223° Southwest 403 464 30,300 900 Climbing Washington Center
08:25AM 37.7517 -78.5231 217° Southwest 417 480 31,300 960 Climbing Washington Center
08:26AM 37.6536 -78.6083 215° Southwest 430 495 32,300 1,140 Climbing Washington Center
08:27AM 37.5447 -78.7036 215° Southwest 438 504 33,600 960 Climbing Washington Center
08:28AM 37.4444 -78.7858 213° Southwest 438 504 34,300 780 Climbing Washington Center
08:29AM 37.3442 -78.8703 214° Southwest 438 504 35,200 840 Climbing Washington Center
08:30AM 37.2458 -78.9575 215° Southwest 438 504 36,000 360 Climbing Washington Center
08:31AM 37.1475 -79.0417 214° Southwest 433 498 36,000  Level Washington Center
08:32AM 37.0597 -79.1186 215° Southwest 433 498 36,000  Level Washington Center
08:33AM 36.9611 -79.2025 214° Southwest 433 498 36,000  Level Washington Center
08:34AM 36.8650 -79.2836 214° Southwest 433 498 36,000  Level Washington Center
08:35AM 36.7683 -79.3672 215° Southwest 433 498 36,000  Level Washington Center
08:36AM 36.6697 -79.4478 213° Southwest 433 498 36,000  Level Washington Center
08:37AM 36.5667 -79.5383 215° Southwest 433 498 36,000  Level Washington Center
08:38AM 36.4700 -79.6214 215° Southwest 428 493 36,000  Level Washington Center
08:38AM 36.3878 -79.6853 212° Southwest 434 499 36,000  Level Atlanta Center
08:39AM 36.2925 -79.7653 214° Southwest 434 499 36,000  Level Atlanta Center
08:40AM 36.2033 -79.8419 215° Southwest 434 499 36,000  Level Atlanta Center
08:41AM 36.1039 -79.9217 213° Southwest 433 498 36,000  Level Atlanta Center
08:42AM 36.0000 -79.9964 210° Southwest 433 498 36,000  Level Atlanta Center
08:43AM 35.8769 -80.0589 202° Southwest 433 498 36,000  Level Atlanta Center
08:44AM 35.7642 -80.1181 203° Southwest 439 505 36,000  Level Atlanta Center
08:45AM 35.6636 -80.1689 202° Southwest 439 505 36,000  Level Atlanta Center
08:46AM 35.5506 -80.2253 202° Southwest 439 505 36,000  Level Atlanta Center
08:47AM 35.4314 -80.2869 203° Southwest 439 505 36,000  Level Atlanta Center
08:48AM 35.3183 -80.3428 202° Southwest 439 505 36,000  Level Atlanta Center
08:51AM 35.0564 -80.4733 202° Southwest 445 512 36,000  Level Jacksonville Center
08:52AM 34.9469 -80.5272 202° Southwest 437 503 36,000  Level Jacksonville Center
08:53AM 34.8375 -80.5808 202° Southwest 430 495 36,000  Level Jacksonville Center
08:54AM 34.7319 -80.6317 202° Southwest 419 482 36,000  Level Jacksonville Center
08:55AM 34.6222 -80.6825 201° Southwest 419 482 36,000  Level Jacksonville Center
08:56AM 34.4853 -80.7086 189° South 443 510 36,000  Level Jacksonville Center
08:57AM 34.3622 -80.7244 186° South 443 510 36,000  Level Jacksonville Center
08:58AM 34.2642 -80.7242 180° South 431 496 36,000  Level Jacksonville Center
08:59AM 34.1456 -80.7347 184° South 424 488 36,000  Level Jacksonville Center
09:00AM 34.0289 -80.7450 184° South 424 488 36,000  Level Jacksonville Center
09:01AM 33.9100 -80.7531 183° South 424 488 36,000  Level Jacksonville Center
09:02AM 33.7872 -80.7636 184° South 430 495 36,000  Level Jacksonville Center
09:03AM 33.6706 -80.7739 184° South 430 495 36,000  Level Jacksonville Center
09:04AM 33.5517 -80.7817 183° South 430 495 36,000  Level Jacksonville Center
09:05AM 33.4328 -80.7919 184° South 430 495 36,000  Level Jacksonville Center
09:06AM 33.3119 -80.8022 184° South 430 495 36,000  Level Jacksonville Center
09:07AM 33.1931 -80.8125 184° South 430 495 36,000  Level Jacksonville Center
09:08AM 33.0578 -80.8231 184° South 435 501 36,000  Level Jacksonville Center
09:09AM 32.9389 -80.8333 184° South 435 501 36,000  Level Jacksonville Center
09:10AM 32.8200 -80.8408 183° South 441 507 36,000  Level Jacksonville Center
09:11AM 32.6969 -80.8511 184° South 441 507 36,000  Level Jacksonville Center
09:12AM 32.5761 -80.8611 184° South 437 503 36,000  Level Jacksonville Center
09:13AM 32.4572 -80.8711 184° South 437 503 36,000  Level Jacksonville Center
09:14AM 32.3406 -80.8811 184° South 437 503 36,000  Level Jacksonville Center
09:15AM 32.2194 -80.8889 183° South 440 506 36,000  Level Jacksonville Center
09:16AM 32.0922 -80.8964 183° South 440 506 36,000  Level Jacksonville Center
09:17AM 31.9694 -80.9089 185° South 440 506 36,000  Level Jacksonville Center
09:18AM 31.8608 -80.9161 183° South 440 506 36,000  Level Jacksonville Center
09:19AM 31.7253 -80.9264 184° South 440 506 36,000  Level Jacksonville Center
09:20AM 31.6022 -80.9364 184° South 439 505 36,000  Level Jacksonville Center
09:21AM 31.4939 -80.9458 184° South 439 505 36,000  Level Jacksonville Center
09:22AM 31.3625 -80.9536 183° South 439 505 36,000  Level Jacksonville Center
09:23AM 31.2478 -80.9631 184° South 446 513 36,000 -480 Level Jacksonville Center
09:24AM 31.1228 -80.9778 186° South 446 513 35,100 -1,080 Descending Jacksonville Center
09:25AM 30.9997 -80.9853 183° South 446 513 33,900 -600 Descending Jacksonville Center
09:26AM 30.8744 -80.9950 184° South 451 519 34,000  Climbing Jacksonville Center
09:27AM 30.7494 -81.0072 185° South 451 519 34,000  Level Jacksonville Center
09:28AM 30.6222 -81.0144 183° South 451 519 34,000  Level Jacksonville Center
09:29AM 30.4950 -81.0219 183° South 461 531 34,000  Level Jacksonville Center
09:30AM 30.3553 -81.0367 185° South 461 531 34,000 -780 Level Jacksonville Center
09:31AM 30.2322 -81.0436 183° South 456 525 32,500 -1,740 Descending Jacksonville Center
09:32AM 30.1031 -81.0533 184° South 456 525 30,600 -1,980 Descending Jacksonville Center
09:33AM 29.9778 -81.0631 184° South 462 532 28,600 -2,100 Descending Jacksonville Center
09:34AM 29.8506 -81.0750 185° South 462 532 26,500 -2,160 Descending Jacksonville Center
09:35AM 29.7256 -81.0822 183° South 462 532 24,300 -2,220 Descending Jacksonville Center
09:36AM 29.6067 -81.0892 183° South 448 516 22,100 -2,100 Descending Jacksonville Center
09:37AM 29.4917 -81.0889 180° South 435 501 20,100 5,940 Descending Jacksonville Center
09:38AM 29.3811 -81.0933 182° South 413 475 34,000 -1,920 Climbing Jacksonville Center
09:39AM 29.2725 -81.0881 178° South 407 468 16,300 -9,780 Descending Jacksonville Center
09:40AM 29.1661 -81.0900 181° South 396 456 14,500 -1,800 Descending Jacksonville Center
09:41AM 29.0639 -81.0942 182° South 380 437 12,700 -1,200 Descending Jacksonville Center
09:42AM 28.9639 -81.0936 180° South 369 425 12,100 -600 Descending Jacksonville Center
09:43AM 28.8658 -81.1003 183° South 363 418 11,500 -840 Descending Jacksonville Center
09:43AM 28.8167 -81.1000 180° South 361 415 11,000 -1,020 Descending Orlando TRACON
09:44AM 28.7167 -81.1333 196° South 351 404 10,100 -660 Descending Orlando TRACON
09:45AM 28.6722 -81.1464 194° South 363 418 10,000 -180 Descending Jacksonville Center
09:46AM 28.5831 -81.1764 196° South 353 406 9,900 -360 Descending Jacksonville Center
09:46AM 28.5500 -81.1833 190° South 283 326 9,600 -1,500 Descending Orlando TRACON
09:47AM 28.4667 -81.1833 180° South 275 316 7,800 -1,740 Descending Orlando TRACON
09:48AM 28.4000 -81.1833 180° South 269 310 6,000 -1,800 Descending Orlando TRACON
09:49AM 28.3167 -81.1833 180° South 267 307 4,100 -1,740 Descending Orlando TRACON